Time;durP1;ratioP1;P1;durP2;ratioP2;P2;SDS_P1;SDS_P2;PMS_P1;PMS_P2;Temp;Humidity;BMP_temperature;BMP_pressure;BME280_temperature;BME280_humidity;BME280_pressure;Samples;Min_cycle;Max_cycle;Signal;HPM_P1;HPM_P2
2023/01/05 00:00:20;;;;;;;0.90;0.40;;;;;;;10.92;80.32;100969.59;4194320;28;20086;-71
2023/01/05 00:02:23;;;;;;;0.60;0.60;;;;;;;10.97;80.37;100973.16;4167558;28;20053;-70
2023/01/05 00:04:26;;;;;;;0.50;0.50;;;;;;;10.98;79.75;100979.22;4194508;28;20036;-71
2023/01/05 00:06:31;;;;;;;3.38;0.60;;;;;;;10.99;80.55;100980.97;4177230;28;20103;-71
2023/01/05 00:08:34;;;;;;;0.50;0.50;;;;;;;11.03;80.12;100976.72;4203044;28;20155;-72
2023/01/05 00:22:32;;;;;;;0.57;0.57;;;;;;;11.02;80.16;100954.16;4188335;28;20747;-71
2023/01/05 00:24:35;;;;;;;1.20;0.80;;;;;;;11.08;80.35;100938.66;4191701;28;20043;-72
2023/01/05 00:26:37;;;;;;;1.00;0.77;;;;;;;11.11;79.84;100949.13;4191802;28;20054;-71
2023/01/05 00:28:40;;;;;;;1.10;0.70;;;;;;;11.10;79.30;100944.78;4193391;28;20433;-71
2023/01/05 00:30:46;;;;;;;1.10;0.80;;;;;;;11.11;79.59;100944.81;4195117;28;20044;-72
2023/01/05 00:32:50;;;;;;;1.17;0.90;;;;;;;11.08;79.23;100944.75;4195595;28;20059;-72
2023/01/05 00:34:54;;;;;;;0.63;0.52;;;;;;;11.12;79.69;100938.75;4194317;28;20119;-71
2023/01/05 00:36:57;;;;;;;;;;;;;;;11.06;80.07;100937.75;4196222;28;20028;-72
2023/01/05 00:39:01;;;;;;;1.23;0.70;;;;;;;11.05;80.06;100934.25;4194763;28;19960;-72
2023/01/05 00:41:04;;;;;;;3.17;0.65;;;;;;;11.08;79.70;100936.06;4192063;28;20483;-72
2023/01/05 00:43:07;;;;;;;1.75;0.65;;;;;;;11.11;79.37;100929.22;4194202;28;20044;-71
2023/01/05 00:45:12;;;;;;;1.30;0.55;;;;;;;11.16;79.99;100935.34;4192852;28;20033;-71
2023/01/05 00:47:16;;;;;;;1.10;0.70;;;;;;;11.11;79.22;100929.22;4184064;28;20033;-71
2023/01/05 00:49:19;;;;;;;0.60;0.60;;;;;;;11.05;80.14;100926.47;4199137;28;20044;-72
2023/01/05 00:51:21;;;;;;;0.88;0.70;;;;;;;11.06;79.77;100929.97;4188818;28;20082;-71
2023/01/05 00:53:24;;;;;;;1.25;0.70;;;;;;;11.09;79.41;100932.63;4189207;28;20040;-72
2023/01/05 00:55:28;;;;;;;0.50;0.50;;;;;;;11.08;80.42;100941.25;4192914;28;20123;-71
2023/01/05 00:57:31;;;;;;;1.42;0.82;;;;;;;11.10;79.59;100939.59;4194677;28;20469;-71
2023/01/05 00:59:34;;;;;;;2.47;0.60;;;;;;;11.18;79.79;100941.50;4194013;28;20043;-71
2023/01/05 01:01:37;;;;;;;0.50;0.50;;;;;;;11.11;79.65;100941.31;4185008;28;20083;-71
2023/01/05 01:03:40;;;;;;;3.70;0.75;;;;;;;11.16;80.08;100937.09;4188829;28;20082;-71
2023/01/05 01:05:44;;;;;;;2.37;0.73;;;;;;;11.22;79.40;100941.56;4176452;28;20041;-71
2023/01/05 01:07:47;;;;;;;0.40;0.40;;;;;;;11.27;79.16;100938.19;4207107;28;20286;-71
2023/01/05 01:09:50;;;;;;;1.58;0.85;;;;;;;11.34;78.75;100937.44;4187225;28;20075;-71
2023/01/05 01:11:54;;;;;;;1.33;0.68;;;;;;;11.35;79.11;100933.13;4188122;28;20045;-71
2023/01/05 01:13:57;;;;;;;1.15;0.68;;;;;;;11.31;78.80;100926.97;4188164;28;20433;-71
2023/01/05 01:16:06;;;;;;;14.65;1.83;;;;;;;11.37;79.08;100927.94;4188593;28;20103;-71
2023/01/05 01:18:09;;;;;;;0.50;0.50;;;;;;;11.32;79.30;100925.25;4191493;28;20476;-71
2023/01/05 01:20:12;;;;;;;0.65;0.50;;;;;;;11.37;79.39;100922.72;4194476;28;20037;-71
2023/01/05 01:22:15;;;;;;;2.83;0.43;;;;;;;11.41;78.60;100917.59;4176919;28;20145;-71
2023/01/05 01:24:21;;;;;;;1.73;0.80;;;;;;;11.44;78.77;100937.63;4192546;28;20051;-71
2023/01/05 01:26:23;;;;;;;3.30;1.05;;;;;;;11.37;78.41;100928.81;4193874;28;20041;-71
2023/01/05 01:28:28;;;;;;;2.08;0.75;;;;;;;11.37;78.93;100920.13;4204804;28;20040;-70
2023/01/05 01:30:30;;;;;;;6.45;0.70;;;;;;;11.44;78.52;100925.47;4199177;28;20033;-71
2023/01/05 01:32:33;;;;;;;2.40;1.00;;;;;;;11.43;78.39;100928.91;4192278;28;20099;-70
2023/01/05 01:34:38;;;;;;;3.25;0.90;;;;;;;11.50;78.73;100927.31;4185780;28;20115;-70
2023/01/05 01:36:41;;;;;;;0.90;0.50;;;;;;;11.52;77.87;100926.50;4193785;28;20059;-71
2023/01/05 01:38:44;;;;;;;1.30;0.65;;;;;;;11.57;78.20;100928.31;4193665;28;20090;-71
2023/01/05 01:40:49;;;;;;;0.88;0.43;;;;;;;11.62;77.37;100924.03;4201370;28;20411;-71
2023/01/05 01:42:51;;;;;;;;;;;;;;;11.61;77.33;100930.09;4193585;28;20123;-70
2023/01/05 01:45:00;;;;;;;1.85;0.40;;;;;;;11.59;77.85;100932.66;4176593;28;20003;-71
2023/01/05 01:47:15;;;;;;;1.35;0.50;;;;;;;11.62;77.44;100931.84;4174369;28;20123;-70
2023/01/05 01:49:18;;;;;;;2.08;0.80;;;;;;;11.64;77.45;100932.78;4191268;28;20036;-70
2023/01/05 01:51:24;;;;;;;0.77;0.50;;;;;;;11.69;77.07;100938.94;4188867;28;20043;-71
2023/01/05 01:53:30;;;;;;;2.13;0.60;;;;;;;11.72;77.11;100931.16;4170165;28;20037;-70
2023/01/05 01:55:35;;;;;;;1.17;0.43;;;;;;;11.68;77.12;100932.84;4188707;28;20083;-71
2023/01/05 01:57:38;;;;;;;5.25;0.93;;;;;;;11.72;77.36;100944.19;4188740;28;20078;-70
2023/01/05 01:59:42;;;;;;;0.93;0.63;;;;;;;11.71;76.89;100947.66;4193259;28;20429;-70
2023/01/05 02:01:48;;;;;;;3.15;0.55;;;;;;;11.73;76.75;100951.16;4185682;28;20040;-71
2023/01/05 02:03:52;;;;;;;2.80;0.60;;;;;;;11.70;76.60;100951.09;4179684;28;20048;-71
2023/01/05 02:05:56;;;;;;;2.00;0.65;;;;;;;11.67;77.19;100940.63;4184208;28;20052;-70
2023/01/05 02:07:59;;;;;;;1.20;0.40;;;;;;;11.68;76.92;100937.16;4193827;28;20032;-70
2023/01/05 02:10:03;;;;;;;1.25;0.73;;;;;;;11.72;77.28;100935.50;4175357;28;20044;-71
2023/01/05 02:12:18;;;;;;;2.22;0.70;;;;;;;11.70;77.58;100940.69;4190829;28;20090;-71
2023/01/05 02:14:26;;;;;;;;;;;;;;;11.64;77.71;100940.59;4209772;28;20114;-71
2023/01/05 02:16:40;;;;;;;5.45;1.10;;;;;;;11.62;77.58;100937.06;4193193;28;19927;-70
2023/01/05 02:19:00;;;;;;;2.28;0.70;;;;;;;11.61;77.96;100932.69;4195833;28;20526;-71
2023/01/05 02:21:15;;;;;;;2.90;0.75;;;;;;;11.62;78.17;100926.66;4188839;28;20041;-70
2023/01/05 02:23:59;;;;;;;4.53;1.20;;;;;;;11.62;78.38;100927.53;4189610;28;20036;-70
2023/01/05 02:26:24;;;;;;;5.78;0.85;;;;;;;11.66;77.95;100920.63;4174559;28;20060;-70
2023/01/05 02:28:38;;;;;;;;;;;;;;;11.53;78.75;100928.25;4192592;28;20067;-70
2023/01/05 02:31:08;;;;;;;3.00;0.70;;;;;;;11.49;79.19;100921.22;4180021;28;20453;-71
2023/01/05 02:33:27;;;;;;;5.45;0.85;;;;;;;11.58;79.02;100930.03;4166458;28;20068;-71
2023/01/05 02:35:40;;;;;;;4.72;0.95;;;;;;;11.65;78.18;100918.88;4190339;28;20441;-71
2023/01/05 02:37:48;;;;;;;3.25;0.98;;;;;;;11.68;78.33;100921.53;4193939;28;20120;-72
2023/01/05 02:39:58;;;;;;;5.18;0.88;;;;;;;11.64;78.36;100919.75;4189732;28;20098;-71
2023/01/05 02:42:06;;;;;;;6.63;1.13;;;;;;;11.65;78.72;100921.47;4166174;28;20054;-71
2023/01/05 02:44:10;;;;;;;2.55;1.38;;;;;;;11.64;78.79;100912.81;4191468;28;20048;-71
2023/01/05 02:46:14;;;;;;;2.38;0.80;;;;;;;11.61;78.99;100912.75;4197496;28;20054;-71
2023/01/05 02:48:17;;;;;;;3.40;0.90;;;;;;;11.59;78.81;100908.38;4179497;28;20036;-71
2023/01/05 02:50:24;;;;;;;2.90;1.08;;;;;;;11.56;78.67;100910.91;4196132;28;20756;-70
2023/01/05 02:52:31;;;;;;;6.38;1.08;;;;;;;11.53;78.78;100911.72;4187154;28;20032;-70
2023/01/05 02:54:36;;;;;;;3.97;0.70;;;;;;;11.60;78.34;100921.41;4198110;28;20032;-71
2023/01/05 02:56:46;;;;;;;4.28;1.33;;;;;;;11.68;78.14;100921.53;4202852;28;20133;-70
2023/01/05 02:58:55;;;;;;;2.72;0.45;;;;;;;11.62;77.82;100916.22;4201467;28;20048;-70
2023/01/05 03:01:02;;;;;;;0.73;0.50;;;;;;;11.66;78.00;100905.00;4195988;28;20051;-71
2023/01/05 03:03:12;;;;;;;2.55;0.50;;;;;;;11.73;77.25;100906.88;4172826;28;20052;-70
2023/01/05 03:05:23;;;;;;;3.33;0.57;;;;;;;11.72;77.67;100912.94;4201084;28;20122;-69
2023/01/05 03:07:30;;;;;;;0.68;0.50;;;;;;;11.74;77.09;100908.63;4192120;28;20037;-70
2023/01/05 03:09:37;;;;;;;1.00;0.45;;;;;;;11.72;77.29;100907.72;4196000;28;20554;-70
2023/01/05 03:14:18;;;;;;;0.65;0.50;;;;;;;11.74;76.93;100924.25;4185132;28;20758;-70
2023/01/05 03:16:27;;;;;;;0.75;0.40;;;;;;;11.72;77.75;100931.16;4185937;28;20106;-70
2023/01/05 03:19:34;;;;;;;0.50;0.38;;;;;;;11.74;77.54;100941.59;4187476;28;20037;-70
2023/01/05 03:21:00;;;;;;;1.65;0.40;;;;;;;11.76;77.06;100937.31;4195950;28;20043;-71
2023/01/05 03:37:31;;;;;;;1.70;0.50;;;;;;;11.67;78.77;100964.06;4195850;28;20076;-71
2023/01/05 03:39:37;;;;;;;1.15;0.40;;;;;;;11.66;79.16;100965.78;4179504;28;20067;-70
2023/01/05 03:41:41;;;;;;;2.80;0.70;;;;;;;11.60;79.71;100970.03;4208671;28;20047;-70
2023/01/05 03:43:46;;;;;;;0.32;0.28;;;;;;;11.54;79.99;100976.00;4194305;28;20036;-71
2023/01/05 03:45:52;;;;;;;0.30;0.30;;;;;;;11.49;80.90;100978.50;4172400;28;20539;-70
2023/01/05 03:47:59;;;;;;;1.95;0.50;;;;;;;11.47;80.68;100969.78;4188837;28;20041;-69
2023/01/05 03:50:06;;;;;;;2.50;0.80;;;;;;;11.49;79.60;100973.31;4208819;28;20040;-70
2023/01/05 03:52:08;;;;;;;3.38;0.65;;;;;;;11.46;79.16;100988.88;4187420;28;20163;-69
2023/01/05 03:54:15;;;;;;;3.15;0.60;;;;;;;11.48;78.57;100986.31;4187231;28;20717;-70
2023/01/05 03:56:21;;;;;;;3.55;0.90;;;;;;;11.58;77.26;100984.72;4205953;28;20043;-70
2023/01/05 03:58:29;;;;;;;4.10;1.25;;;;;;;11.65;76.46;100982.28;4188984;28;20059;-69
2023/01/05 04:00:32;;;;;;;3.85;1.00;;;;;;;11.68;75.79;100987.53;4195441;28;20048;-69
2023/01/05 04:02:40;;;;;;;5.18;0.85;;;;;;;11.72;75.39;100991.06;4203112;28;20145;-69
2023/01/05 04:04:45;;;;;;;3.97;0.90;;;;;;;11.79;73.55;101003.34;4200360;28;20067;-69
2023/01/05 04:06:49;;;;;;;4.88;1.27;;;;;;;11.83;72.64;100989.53;4194811;28;20052;-71
2023/01/05 04:08:52;;;;;;;;;;;;;;;11.82;71.38;100982.56;4182998;28;20041;-69
2023/01/05 04:10:56;;;;;;;5.28;1.17;;;;;;;11.84;70.95;100985.19;4207192;28;20583;-69
2023/01/05 04:12:59;;;;;;;7.28;1.48;;;;;;;11.90;69.57;100976.59;4205947;28;20036;-70
2023/01/05 04:15:03;;;;;;;8.93;2.10;;;;;;;11.88;69.55;100995.72;4194312;28;20115;-70
2023/01/05 04:17:07;;;;;;;8.02;1.92;;;;;;;11.85;69.82;100998.25;4194601;28;20033;-69
2023/01/05 04:19:13;;;;;;;6.53;1.95;;;;;;;11.87;69.54;101000.88;4197806;28;20098;-69
2023/01/05 04:21:17;;;;;;;8.73;1.95;;;;;;;11.85;68.60;101006.06;4190310;28;20037;-69
2023/01/05 04:23:21;;;;;;;8.57;2.13;;;;;;;11.81;67.27;101011.19;4203689;28;20489;-69
2023/01/05 04:25:24;;;;;;;9.82;1.98;;;;;;;11.85;67.21;100998.25;4194372;28;20032;-71
2023/01/05 04:27:27;;;;;;;8.77;2.45;;;;;;;11.82;67.10;101008.63;4192603;28;20035;-69
2023/01/05 04:29:30;;;;;;;7.68;1.98;;;;;;;11.83;67.48;101002.56;4192595;28;20063;-71
2023/01/05 04:31:35;;;;;;;9.27;2.10;;;;;;;11.81;66.88;101011.19;4194461;28;20044;-70
2023/01/05 04:33:38;;;;;;;12.15;2.80;;;;;;;11.77;67.25;101020.69;4193801;28;20044;-71
2023/01/05 04:35:42;;;;;;;16.05;2.92;;;;;;;11.70;67.08;101022.28;4193246;28;20107;-69
2023/01/05 04:37:46;;;;;;;10.75;2.35;;;;;;;11.69;67.00;101041.38;4195078;28;20616;-70
2023/01/05 04:39:51;;;;;;;11.07;2.58;;;;;;;11.67;66.65;101034.41;4191875;28;20032;-69
2023/01/05 04:41:54;;;;;;;10.20;2.13;;;;;;;11.60;67.01;101037.72;4195110;28;20046;-70
2023/01/05 04:43:57;;;;;;;10.88;2.22;;;;;;;11.61;66.28;101044.66;4193961;28;20036;-70
2023/01/05 04:46:01;;;;;;;13.25;3.13;;;;;;;11.62;66.21;101059.47;4192513;28;20090;-68
2023/01/05 04:48:05;;;;;;;14.48;3.35;;;;;;;11.59;66.57;101046.38;4193558;28;20138;-69
2023/01/05 04:50:09;;;;;;;11.98;2.60;;;;;;;11.57;66.74;101064.59;4195065;28;20036;-72
2023/01/05 04:52:13;;;;;;;9.43;2.20;;;;;;;11.57;66.93;101063.72;4178326;28;20638;-72
2023/01/05 04:54:18;;;;;;;9.82;2.33;;;;;;;11.57;66.83;101068.94;4189970;28;20047;-73
2023/01/05 04:56:23;;;;;;;7.38;2.28;;;;;;;11.56;66.33;101059.34;4170419;28;20037;-73
2023/01/05 04:58:26;;;;;;;10.52;2.28;;;;;;;11.55;66.77;101060.19;4186230;28;20120;-73
2023/01/05 05:00:32;;;;;;;9.98;2.75;;;;;;;11.63;66.86;101063.81;4192859;28;20498;-72
2023/01/05 05:02:36;;;;;;;12.90;3.00;;;;;;;11.57;65.79;101072.41;4193928;28;20044;-72
2023/01/05 05:04:39;;;;;;;15.02;2.88;;;;;;;11.57;65.79;101076.72;4193177;28;20037;-73
2023/01/05 05:06:43;;;;;;;9.80;1.90;;;;;;;11.53;65.88;101081.88;4199347;28;20036;-73
2023/01/05 05:08:48;;;;;;;6.63;2.38;;;;;;;11.48;65.71;101086.09;4167635;28;20050;-73
2023/01/05 05:10:51;;;;;;;9.90;2.65;;;;;;;11.60;66.07;101092.41;4192070;28;20093;-70
2023/01/05 05:12:56;;;;;;;11.32;2.53;;;;;;;11.69;66.28;101101.28;4193899;28;20090;-70
2023/01/05 05:14:59;;;;;;;14.07;3.50;;;;;;;11.72;65.64;101097.00;4193785;28;20044;-70
2023/01/05 05:17:03;;;;;;;10.32;2.67;;;;;;;11.73;65.56;101104.84;4176594;28;20137;-70
2023/01/05 05:19:06;;;;;;;10.40;2.28;;;;;;;11.73;64.99;101112.66;4193860;28;20127;-70
2023/01/05 05:21:09;;;;;;;14.18;2.70;;;;;;;11.68;65.10;101112.56;4193949;28;20044;-70
2023/01/05 05:23:13;;;;;;;12.30;2.22;;;;;;;11.77;65.53;101124.00;4208904;28;20556;-70
2023/01/05 05:25:16;;;;;;;10.88;2.75;;;;;;;11.80;65.61;101114.53;4193840;28;20127;-70
2023/01/05 05:27:22;;;;;;;13.98;2.58;;;;;;;11.83;65.59;101125.00;4193102;28;20036;-71
2023/01/05 05:29:26;;;;;;;12.32;2.45;;;;;;;11.85;65.24;101122.44;4193068;28;20043;-70
2023/01/05 05:31:29;;;;;;;9.85;2.53;;;;;;;11.77;65.08;101132.72;4178153;28;20041;-70
2023/01/05 05:33:32;;;;;;;11.32;2.25;;;;;;;11.73;65.23;101141.28;4174688;28;20102;-70
2023/01/05 05:35:35;;;;;;;13.35;2.67;;;;;;;11.70;64.80;101136.91;4196003;28;20036;-69
2023/01/05 05:37:37;;;;;;;11.88;2.40;;;;;;;11.71;64.95;101140.41;4195595;28;20086;-70
2023/01/05 05:39:40;;;;;;;17.20;3.33;;;;;;;11.62;64.90;101134.97;4197317;28;20058;-70
2023/01/05 05:41:43;;;;;;;11.02;2.53;;;;;;;11.59;64.85;101137.53;4196172;28;20279;-70
2023/01/05 05:43:46;;;;;;;15.15;2.17;;;;;;;11.59;64.53;101145.34;4195075;28;20131;-71
2023/01/05 05:45:50;;;;;;;12.13;2.47;;;;;;;11.56;64.36;101151.34;4196051;28;20098;-70
2023/01/05 05:47:53;;;;;;;11.40;2.63;;;;;;;11.45;65.22;101147.66;4197342;28;20041;-71
2023/01/05 05:49:56;;;;;;;14.23;2.85;;;;;;;11.47;65.20;101151.16;4195995;28;20048;-71
2023/01/05 05:51:59;;;;;;;13.05;2.35;;;;;;;11.56;65.34;101151.34;4197289;28;20491;-70
2023/01/05 05:54:01;;;;;;;16.98;3.08;;;;;;;11.47;65.37;101153.78;4196556;28;20473;-70
2023/01/05 05:56:05;;;;;;;11.35;2.90;;;;;;;11.42;65.60;101153.69;4196048;28;20549;-71
2023/01/05 05:58:08;;;;;;;13.20;2.58;;;;;;;11.46;65.30;101154.59;4197226;28;20051;-71
2023/01/05 06:00:12;;;;;;;13.63;2.40;;;;;;;11.57;65.72;101157.47;4195895;28;20494;-71
2023/01/05 06:02:17;;;;;;;15.38;2.75;;;;;;;11.51;65.48;101159.06;4197191;28;20048;-70
2023/01/05 06:04:19;;;;;;;12.50;2.80;;;;;;;11.48;65.23;101169.44;4196375;28;20067;-70
2023/01/05 06:06:22;;;;;;;8.52;2.40;;;;;;;11.50;65.25;101170.31;4196700;28;20036;-71
2023/01/05 06:08:26;;;;;;;7.47;2.40;;;;;;;11.50;65.83;101167.72;4197178;28;20043;-71
2023/01/05 06:10:28;;;;;;;11.63;2.53;;;;;;;11.56;64.91;101169.59;4179090;28;20045;-71
2023/01/05 06:12:31;;;;;;;11.65;2.90;;;;;;;11.58;65.13;101167.00;4179182;28;20140;-71
2023/01/05 06:14:34;;;;;;;12.05;2.60;;;;;;;11.57;65.26;101170.47;4196341;28;20041;-71
2023/01/05 06:16:37;;;;;;;15.13;4.45;;;;;;;11.60;65.46;101179.22;4196976;28;20480;-71
2023/01/05 06:18:42;;;;;;;12.27;3.30;;;;;;;11.56;64.54;101181.72;4197032;28;20098;-71
2023/01/05 06:20:44;;;;;;;15.77;3.10;;;;;;;11.44;64.79;101180.63;4196929;28;20099;-71
2023/01/05 06:22:47;;;;;;;11.15;2.72;;;;;;;11.40;65.71;101181.38;4195797;28;20047;-71
2023/01/05 06:24:50;;;;;;;9.50;2.55;;;;;;;11.37;65.53;101186.53;4194957;28;20051;-71
2023/01/05 06:26:53;;;;;;;12.52;3.22;;;;;;;11.36;65.11;101187.38;4196957;28;20045;-71
2023/01/05 06:28:56;;;;;;;16.63;3.38;;;;;;;11.38;65.06;101177.88;4196976;28;20053;-71
2023/01/05 06:30:59;;;;;;;15.10;2.47;;;;;;;11.34;65.29;101173.44;4195580;28;20114;-71
2023/01/05 06:33:02;;;;;;;13.98;3.08;;;;;;;11.34;65.37;101171.72;4196887;28;20047;-71
2023/01/05 06:35:07;;;;;;;15.23;3.08;;;;;;;11.33;65.81;101174.28;4196232;28;20513;-70
2023/01/05 06:37:10;;;;;;;9.48;2.67;;;;;;;11.29;65.95;101172.47;4196921;28;20036;-71
2023/01/05 06:39:12;;;;;;;11.00;2.90;;;;;;;11.24;66.30;101174.94;4195749;28;20036;-70
2023/01/05 06:41:15;;;;;;;12.52;2.65;;;;;;;11.29;65.67;101175.06;4196789;28;20048;-71
2023/01/05 06:43:18;;;;;;;12.27;2.80;;;;;;;11.29;65.52;101178.56;4194831;28;20532;-71
2023/01/05 06:45:21;;;;;;;12.60;2.78;;;;;;;11.21;66.54;101174.88;4195555;28;20041;-70
2023/01/05 06:47:24;;;;;;;12.32;2.97;;;;;;;11.13;66.74;101177.31;4196900;28;20451;-70
2023/01/05 06:49:27;;;;;;;11.23;3.35;;;;;;;11.11;66.75;101173.81;4197060;28;20071;-70
2023/01/05 06:51:31;;;;;;;11.23;2.63;;;;;;;11.10;66.69;101172.03;4196817;28;20056;-71
2023/01/05 06:53:34;;;;;;;12.27;2.55;;;;;;;11.13;67.38;101176.44;4195975;28;20481;-70
2023/01/05 06:55:36;;;;;;;9.75;2.28;;;;;;;11.12;67.02;101179.88;4196869;28;20579;-70
2023/01/05 06:57:39;;;;;;;12.52;2.75;;;;;;;11.07;67.42;101176.28;4195586;28;20391;-71
2023/01/05 06:59:42;;;;;;;15.45;3.42;;;;;;;11.09;67.60;101172.88;4196601;28;20090;-71
2023/01/05 07:01:45;;;;;;;11.15;2.67;;;;;;;11.12;67.62;101169.47;4196780;28;20044;-71
2023/01/05 07:03:48;;;;;;;11.55;2.22;;;;;;;11.13;66.65;101176.44;4195921;28;20487;-71
2023/01/05 07:05:52;;;;;;;10.13;2.58;;;;;;;11.08;67.04;101184.16;4196587;28;20045;-71
2023/01/05 07:07:56;;;;;;;11.27;2.42;;;;;;;11.06;67.27;101167.59;4195302;28;20106;-71
2023/01/05 07:09:59;;;;;;;10.65;2.53;;;;;;;11.08;66.73;101165.03;4196956;28;20680;-71
2023/01/05 07:12:02;;;;;;;14.40;2.85;;;;;;;11.02;66.62;101178.78;4178757;28;20072;-70
2023/01/05 07:14:05;;;;;;;16.13;2.70;;;;;;;11.03;66.84;101174.47;4196007;28;20428;-71
2023/01/05 07:16:07;;;;;;;11.75;2.67;;;;;;;11.03;67.18;101175.34;4196571;28;20498;-71
2023/01/05 07:18:11;;;;;;;9.43;2.63;;;;;;;11.11;66.66;101171.22;4196616;28;20565;-71
2023/01/05 07:20:13;;;;;;;13.30;2.55;;;;;;;11.10;66.64;101179.84;4196540;28;20498;-71
2023/01/05 07:22:16;;;;;;;10.25;3.17;;;;;;;11.16;67.03;101171.31;4196468;28;20040;-71
2023/01/05 07:24:20;;;;;;;9.95;2.38;;;;;;;11.11;67.07;101175.50;4197447;28;20139;-70
2023/01/05 07:26:23;;;;;;;13.60;3.10;;;;;;;11.06;66.55;101184.94;4197071;28;20076;-71
2023/01/05 07:28:26;;;;;;;13.63;2.80;;;;;;;11.11;66.67;101179.00;4199229;28;20040;-71
2023/01/05 07:30:29;;;;;;;15.23;2.95;;;;;;;11.08;67.04;101178.94;4199353;28;20525;-71
2023/01/05 07:32:32;;;;;;;12.10;3.58;;;;;;;11.19;66.89;101189.59;4199346;28;20125;-71
2023/01/05 07:34:35;;;;;;;14.05;2.80;;;;;;;11.26;67.16;101186.28;4198594;28;20033;-71
2023/01/05 07:36:37;;;;;;;17.10;3.53;;;;;;;11.25;66.55;101181.91;4181569;28;20138;-71
2023/01/05 07:38:40;;;;;;;15.48;3.45;;;;;;;11.26;66.35;101181.09;4199342;28;20052;-71
2023/01/05 07:40:44;;;;;;;15.80;2.90;;;;;;;11.23;66.21;101191.44;4199234;28;20037;-71
2023/01/05 07:42:50;;;;;;;16.50;3.53;;;;;;;11.20;66.36;101193.97;4197982;28;20045;-71
2023/01/05 07:44:53;;;;;;;14.23;3.25;;;;;;;11.18;66.26;101196.53;4198485;28;20512;-71
2023/01/05 07:46:57;;;;;;;11.48;3.10;;;;;;;11.25;66.18;101209.69;4197990;28;20044;-71
2023/01/05 07:49:01;;;;;;;17.47;3.40;;;;;;;11.21;66.04;101211.31;4198046;28;20138;-71
2023/01/05 07:51:05;;;;;;;12.18;2.80;;;;;;;11.24;66.11;101213.13;4197976;28;20078;-71
2023/01/05 07:53:08;;;;;;;11.00;3.25;;;;;;;11.31;65.46;101217.63;4197849;28;20536;-71
2023/01/05 07:55:11;;;;;;;13.95;3.33;;;;;;;11.31;65.46;101217.63;4180959;28;20099;-71
2023/01/05 07:57:15;;;;;;;12.38;2.60;;;;;;;11.26;65.01;101220.13;4199047;28;20093;-71
2023/01/05 07:59:18;;;;;;;7.43;2.85;;;;;;;11.25;63.97;101217.50;4198966;28;20050;-70
2023/01/05 08:01:21;;;;;;;10.55;2.25;;;;;;;11.28;64.55;101225.38;4197761;28;20044;-71
2023/01/05 08:03:24;;;;;;;9.75;2.17;;;;;;;11.33;63.88;101223.75;4196973;28;20045;-71
2023/01/05 08:05:32;;;;;;;9.15;2.83;;;;;;;11.37;63.38;101225.56;4198890;28;20398;-71
2023/01/05 08:07:36;;;;;;;9.15;2.00;;;;;;;11.34;63.63;101228.09;4197681;28;20461;-71
2023/01/05 08:11:59;;;;;;;11.40;2.55;;;;;;;11.35;62.83;101229.88;4198772;28;20132;-70
2023/01/05 08:14:03;;;;;;;13.38;2.67;;;;;;;11.39;63.74;101229.13;4196701;28;20071;-71
2023/01/05 08:16:06;;;;;;;8.63;1.98;;;;;;;11.44;63.36;101230.09;4197795;28;20078;-71
2023/01/05 08:18:09;;;;;;;14.93;3.13;;;;;;;11.52;63.41;101233.75;4198762;28;20045;-71
2023/01/05 08:20:12;;;;;;;12.82;2.55;;;;;;;11.55;63.54;101242.47;4197391;28;20481;-71
2023/01/05 08:22:15;;;;;;;17.13;3.42;;;;;;;11.60;63.46;101248.69;4198577;28;20517;-71
2023/01/05 08:24:18;;;;;;;13.55;2.92;;;;;;;11.58;63.03;101251.25;4196539;28;20070;-71
2023/01/05 08:26:23;;;;;;;14.65;3.28;;;;;;;11.50;62.94;101261.47;4198551;28;20046;-71
2023/01/05 08:28:26;;;;;;;9.85;2.08;;;;;;;11.46;62.80;101257.06;4198573;28;20044;-71
2023/01/05 08:30:38;;;;;;;11.77;2.45;;;;;;;11.41;63.55;101261.25;4198618;28;20052;-71
2023/01/05 08:32:41;;;;;;;17.75;3.78;;;;;;;11.38;63.68;101265.53;4198682;28;20052;-71
2023/01/05 08:34:44;;;;;;;12.60;2.78;;;;;;;11.44;63.37;101269.13;4197645;28;20040;-71
2023/01/05 08:36:55;;;;;;;11.45;2.75;;;;;;;11.46;64.01;101269.16;4198398;28;20036;-71
2023/01/05 08:39:00;;;;;;;13.07;2.70;;;;;;;11.45;63.68;101270.03;4197159;28;20041;-71
2023/01/05 08:41:02;;;;;;;14.50;4.43;;;;;;;11.47;63.75;101277.00;4197127;28;20041;-71
2023/01/05 08:43:06;;;;;;;13.82;3.45;;;;;;;11.54;63.59;101275.44;4198304;28;20090;-71
2023/01/05 08:45:10;;;;;;;13.13;2.70;;;;;;;11.53;64.09;101282.41;4197738;28;20036;-71
2023/01/05 08:47:14;;;;;;;14.85;3.17;;;;;;;11.58;63.42;101289.41;4197082;28;20052;-71
2023/01/05 08:49:20;;;;;;;14.70;3.20;;;;;;;11.57;63.83;101285.94;4198215;28;20456;-71
2023/01/05 08:51:23;;;;;;;11.93;3.22;;;;;;;11.63;63.48;101278.25;4198154;28;20047;-71
2023/01/05 08:53:26;;;;;;;9.35;2.28;;;;;;;11.65;63.41;101279.19;4197387;28;20056;-71
2023/01/05 08:55:29;;;;;;;12.02;3.03;;;;;;;11.62;63.59;101283.44;4197837;28;20517;-71
2023/01/05 08:57:32;;;;;;;12.90;3.75;;;;;;;11.59;63.67;101288.56;4197990;28;20041;-71
2023/01/05 08:59:35;;;;;;;11.57;2.58;;;;;;;11.68;63.09;101283.56;4196842;28;20041;-71
2023/01/05 09:01:38;;;;;;;11.00;3.05;;;;;;;11.70;63.18;101284.50;4197916;28;20090;-71
2023/01/05 09:03:42;;;;;;;10.02;3.63;;;;;;;11.65;63.26;101279.19;4197113;28;20392;-71
2023/01/05 09:05:45;;;;;;;10.82;2.25;;;;;;;11.63;63.63;101286.06;4180119;28;20033;-71
2023/01/05 09:07:48;;;;;;;11.60;2.70;;;;;;;11.67;63.68;101285.31;4197937;28;20032;-71
2023/01/05 09:09:51;;;;;;;10.32;2.40;;;;;;;11.77;63.47;101281.19;4197865;28;20051;-71
2023/01/05 09:11:54;;;;;;;11.55;2.67;;;;;;;11.75;63.34;101280.25;4197690;28;20097;-71
2023/01/05 09:14:01;;;;;;;11.63;3.00;;;;;;;11.66;63.42;101282.66;4197023;28;20123;-71
2023/01/05 09:16:06;;;;;;;12.05;3.17;;;;;;;11.58;64.05;101274.69;4196539;28;20055;-70
2023/01/05 09:18:09;;;;;;;;;;;;;;;11.58;63.79;101279.00;4198156;28;20467;-71
2023/01/05 09:20:13;;;;;;;13.20;3.05;;;;;;;11.53;64.09;101279.78;4197733;28;19964;-70
2023/01/05 09:22:16;;;;;;;16.42;3.13;;;;;;;11.58;64.17;101289.41;4196449;28;20430;-71
2023/01/05 09:24:19;;;;;;;14.35;3.60;;;;;;;11.62;63.80;101281.72;4196856;28;20036;-71
2023/01/05 09:26:22;;;;;;;14.98;2.92;;;;;;;11.66;64.14;101293.09;4196522;28;20430;-68
2023/01/05 09:28:25;;;;;;;13.68;2.95;;;;;;;11.63;63.98;101287.81;4193239;28;20048;-70
2023/01/05 09:30:28;;;;;;;14.93;2.80;;;;;;;11.67;64.19;101303.53;4197498;28;20032;-70
2023/01/05 09:32:38;;;;;;;17.67;3.75;;;;;;;11.69;64.00;101307.03;4199185;28;20050;-71
2023/01/05 09:34:40;;;;;;;18.40;3.58;;;;;;;11.72;64.03;101301.03;4197053;28;20079;-71
2023/01/05 09:36:45;;;;;;;17.90;3.55;;;;;;;11.73;64.15;101301.94;4194603;28;20071;-71
2023/01/05 09:38:48;;;;;;;17.52;3.67;;;;;;;11.70;63.59;101311.41;4196606;28;20499;-70
2023/01/05 09:40:55;;;;;;;17.85;3.40;;;;;;;11.69;64.26;101306.16;4195985;28;20502;-71
2023/01/05 09:42:58;;;;;;;17.90;4.28;;;;;;;11.68;64.56;101317.44;4195390;28;20041;-71
2023/01/05 09:45:04;;;;;;;19.73;3.10;;;;;;;11.70;64.72;101313.16;4193688;28;20090;-71
2023/01/05 09:47:15;;;;;;;20.27;4.55;;;;;;;11.72;64.00;101318.41;4196962;28;20044;-70
2023/01/05 09:49:22;;;;;;;16.63;4.03;;;;;;;11.70;64.71;101315.75;4196263;28;20036;-70
2023/01/05 09:51:25;;;;;;;17.38;4.50;;;;;;;11.71;63.63;101317.53;4197256;28;20039;-71
2023/01/05 09:53:30;;;;;;;14.48;3.72;;;;;;;11.72;63.81;101319.25;4196721;28;20055;-71
2023/01/05 09:55:34;;;;;;;12.15;3.90;;;;;;;11.77;63.63;101311.56;4195835;28;20040;-71
2023/01/05 09:57:37;;;;;;;12.90;3.17;;;;;;;11.72;63.97;101316.66;4196024;28;20086;-71
2023/01/05 09:59:43;;;;;;;12.40;2.90;;;;;;;11.76;64.24;101321.09;4197199;28;20040;-71
2023/01/05 10:01:49;;;;;;;12.68;3.08;;;;;;;11.77;63.90;101301.13;4197153;28;20068;-71
2023/01/05 10:03:58;;;;;;;14.13;3.55;;;;;;;11.78;63.52;101315.94;4195122;28;20439;-70
2023/01/05 10:06:13;;;;;;;10.85;2.55;;;;;;;11.79;63.57;101305.53;4197244;28;20051;-71
2023/01/05 10:08:21;;;;;;;11.05;2.85;;;;;;;11.96;63.01;101307.66;4195908;28;20457;-71